Time;durP1;ratioP1;P1;durP2;ratioP2;P2;SDS_P1;SDS_P2;PMS_P1;PMS_P2;Temp;Humidity;BMP_temperature;BMP_pressure;BME280_temperature;BME280_humidity;BME280_pressure;Samples;Min_cycle;Max_cycle;Signal;HPM_P1;HPM_P2
2023/09/03 00:01:35;;;;;;;9.23;2.92;;;;;;;20.90;83.49;100575.72;4940455;28;20057;-84
2023/09/03 00:04:02;;;;;;;4.35;3.13;;;;;;;20.89;83.27;100577.59;4939615;28;20048;-84
2023/09/03 00:06:29;;;;;;;6.10;2.97;;;;;;;20.87;82.81;100576.94;4938673;28;20057;-85
2023/09/03 00:08:56;;;;;;;3.83;2.90;;;;;;;20.86;82.49;100582.50;4952100;28;20047;-85
2023/09/03 00:11:22;;;;;;;4.32;2.85;;;;;;;20.82;82.43;100582.03;4939462;28;20126;-84
2023/09/03 00:13:49;;;;;;;7.32;3.42;;;;;;;20.81;82.28;100586.59;4936938;28;20373;-85
2023/09/03 00:16:16;;;;;;;4.60;2.60;;;;;;;20.76;82.24;100574.66;4919821;28;20046;-84
2023/09/03 00:18:43;;;;;;;4.70;2.85;;;;;;;20.76;82.10;100589.03;4926850;28;20408;-85
2023/09/03 00:21:09;;;;;;;3.95;2.75;;;;;;;20.74;82.07;100591.06;4922076;28;20139;-85
2023/09/03 00:23:36;;;;;;;4.90;2.63;;;;;;;20.74;81.97;100588.38;4940538;28;20071;-85
2023/09/03 00:26:04;;;;;;;6.30;2.50;;;;;;;20.74;82.02;100590.22;4924427;28;20879;-85
2023/09/03 00:28:31;;;;;;;8.90;3.20;;;;;;;20.71;82.09;100587.88;4941960;28;20059;-85
2023/09/03 00:31:05;;;;;;;8.25;2.83;;;;;;;20.69;81.33;100584.53;4924347;28;20477;-85
2023/09/03 00:33:32;;;;;;;8.65;2.90;;;;;;;20.68;81.86;100589.06;4938000;28;20103;-85
2023/09/03 00:36:03;;;;;;;6.65;2.90;;;;;;;20.67;81.92;100584.72;4930991;28;20454;-85
2023/09/03 00:38:30;;;;;;;5.13;2.60;;;;;;;20.66;81.62;100585.75;4937709;28;20430;-86
2023/09/03 00:40:57;;;;;;;6.85;3.03;;;;;;;20.67;81.75;100590.13;4937920;28;20475;-85
2023/09/03 00:43:24;;;;;;;5.00;2.60;;;;;;;20.67;81.80;100600.91;4924222;28;20404;-85
2023/09/03 00:45:51;;;;;;;8.35;2.45;;;;;;;20.66;81.80;100598.38;4910750;28;20496;-84
2023/09/03 00:48:28;;;;;;;7.13;2.13;;;;;;;20.64;81.56;100603.97;4938235;28;20380;-85
2023/09/03 00:50:58;;;;;;;4.10;2.53;;;;;;;20.63;82.07;100602.28;4927705;28;20140;-85
2023/09/03 00:53:26;;;;;;;11.18;3.33;;;;;;;20.62;82.11;100600.63;4896440;29;20043;-85
2023/09/03 00:55:53;;;;;;;5.63;2.83;;;;;;;20.63;82.42;100599.59;4939077;28;20051;-85
2023/09/03 00:58:20;;;;;;;4.55;2.60;;;;;;;20.64;82.59;100616.63;4901884;28;20039;-84
2023/09/03 01:00:47;;;;;;;5.30;2.97;;;;;;;20.63;82.38;100613.06;4912875;28;20381;-84
2023/09/03 01:03:14;;;;;;;7.68;2.72;;;;;;;20.60;82.51;100611.59;4922136;28;20478;-84
2023/09/03 01:05:41;;;;;;;4.22;2.53;;;;;;;20.60;82.30;100608.88;4946196;28;20870;-85
2023/09/03 01:08:08;;;;;;;4.75;2.38;;;;;;;20.61;82.08;100609.75;4921964;28;20047;-85
2023/09/03 01:10:39;;;;;;;9.57;3.03;;;;;;;20.58;82.15;100610.94;4913249;28;20082;-84
2023/09/03 01:13:13;;;;;;;8.50;2.60;;;;;;;20.55;81.77;100611.28;4949071;28;20058;-84
2023/09/03 01:15:44;;;;;;;7.80;3.70;;;;;;;20.55;81.50;100608.59;4953480;28;20110;-84
2023/09/03 01:18:18;;;;;;;3.53;2.30;;;;;;;20.47;81.41;100607.81;4913064;28;20138;-84
2023/09/03 01:21:10;;;;;;;9.05;2.80;;;;;;;20.41;81.21;100606.69;4927773;28;20047;-84
2023/09/03 01:23:45;;;;;;;12.40;2.65;;;;;;;20.45;80.68;100607.97;4925547;28;20044;-84
2023/09/03 01:26:43;;;;;;;4.80;2.67;;;;;;;20.36;80.96;100599.13;4921061;28;20071;-84
2023/09/03 01:29:12;;;;;;;9.18;2.75;;;;;;;20.44;81.04;100610.88;4936669;28;20499;-84
2023/09/03 01:31:39;;;;;;;3.42;2.50;;;;;;;20.45;81.13;100607.97;4911598;28;20125;-84
2023/09/03 01:34:05;;;;;;;4.88;2.35;;;;;;;20.45;81.39;100607.97;4927304;28;20396;-84
2023/09/03 01:36:33;;;;;;;5.57;2.33;;;;;;;20.44;81.62;100614.41;4935551;28;20488;-84
2023/09/03 01:39:03;;;;;;;5.43;2.90;;;;;;;20.44;81.69;100619.78;4947364;28;20122;-84
2023/09/03 01:41:34;;;;;;;5.50;2.58;;;;;;;20.39;81.37;100614.94;4927064;28;20118;-85
2023/09/03 01:44:02;;;;;;;11.90;3.08;;;;;;;20.36;81.65;100618.00;4927915;28;20035;-86
2023/09/03 01:46:34;;;;;;;7.70;2.83;;;;;;;20.37;81.42;100613.44;4938207;28;20062;-85
2023/09/03 01:49:44;;;;;;;7.53;4.35;;;;;;;20.21;81.44;100613.56;4930585;29;20095;-86
2023/09/03 01:52:52;;;;;;;6.00;2.38;;;;;;;20.29;81.26;100616.19;4884906;29;20049;-85
2023/09/03 01:55:20;;;;;;;8.02;3.15;;;;;;;20.35;81.03;100621.72;4918030;28;20506;-85
2023/09/03 01:57:53;;;;;;;5.25;2.50;;;;;;;20.30;80.40;100624.13;4920144;28;20051;-85
2023/09/03 02:00:20;;;;;;;6.20;2.70;;;;;;;20.36;80.75;100625.25;4942289;28;20122;-86
2023/09/03 02:02:49;;;;;;;8.85;2.67;;;;;;;20.34;80.40;100616.50;4950788;28;20054;-86
2023/09/03 02:05:17;;;;;;;5.40;2.17;;;;;;;20.32;80.44;100621.22;4915242;28;20490;-85
2023/09/03 02:07:43;;;;;;;8.25;3.03;;;;;;;20.30;80.78;100620.56;4911157;28;20052;-86
2023/09/03 02:10:10;;;;;;;4.30;2.70;;;;;;;20.30;80.64;100618.72;4951210;28;20051;-86
2023/09/03 02:12:37;;;;;;;11.95;2.90;;;;;;;20.28;80.33;100617.25;4924269;28;20122;-86
2023/09/03 02:15:05;;;;;;;6.15;2.60;;;;;;;20.26;80.26;100619.25;4931778;28;20090;-86
2023/09/03 02:17:31;;;;;;;4.50;2.20;;;;;;;20.24;80.27;100627.53;4912389;28;20056;-86
2023/09/03 02:19:58;;;;;;;4.80;2.55;;;;;;;20.24;80.44;100624.00;4932526;28;20107;-86
2023/09/03 02:22:26;;;;;;;2.53;2.33;;;;;;;20.24;80.81;100627.53;4941767;28;20074;-86
2023/09/03 02:24:52;;;;;;;7.05;2.38;;;;;;;20.22;80.91;100626.03;4921343;28;20051;-86
2023/09/03 02:27:19;;;;;;;5.22;2.67;;;;;;;20.21;80.76;100627.88;4925484;28;20047;-86
2023/09/03 02:29:46;;;;;;;5.65;2.92;;;;;;;20.20;80.86;100628.91;4933485;28;20060;-86
2023/09/03 02:32:13;;;;;;;4.28;2.50;;;;;;;20.16;80.91;100646.47;4938482;28;20448;-86
2023/09/03 02:34:40;;;;;;;6.05;2.58;;;;;;;20.19;80.74;100639.88;4904196;28;20118;-85
2023/09/03 02:37:08;;;;;;;5.55;2.60;;;;;;;20.17;80.48;100646.28;4914489;28;20663;-85
2023/09/03 02:39:35;;;;;;;5.60;2.30;;;;;;;20.16;80.29;100649.16;4919751;28;20047;-85
2023/09/03 02:42:02;;;;;;;2.50;2.30;;;;;;;20.16;80.27;100650.00;4932866;28;20059;-86
2023/09/03 02:44:29;;;;;;;2.75;2.25;;;;;;;20.14;80.30;100652.03;4920310;28;20449;-86
2023/09/03 02:46:56;;;;;;;5.30;2.22;;;;;;;20.11;80.06;100648.84;4927891;28;20039;-85
2023/09/03 02:49:23;;;;;;;6.72;2.33;;;;;;;20.12;79.75;100656.78;4936790;28;20043;-86
2023/09/03 02:51:50;;;;;;;2.88;2.30;;;;;;;20.11;79.96;100663.16;4938829;28;20499;-86
2023/09/03 02:54:18;;;;;;;6.95;2.30;;;;;;;20.10;79.57;100658.81;4923809;28;20042;-86
2023/09/03 02:56:45;;;;;;;7.47;2.30;;;;;;;20.08;79.54;100660.00;4931471;28;20131;-86
2023/09/03 02:59:12;;;;;;;10.00;2.30;;;;;;;20.03;79.46;100659.69;4935884;28;20053;-86
2023/09/03 03:01:39;;;;;;;5.18;2.50;;;;;;;20.03;79.61;100665.91;4920262;28;20051;-86
2023/09/03 03:04:06;;;;;;;4.40;2.20;;;;;;;20.00;79.51;100657.31;4917482;28;20048;-86
2023/09/03 03:06:33;;;;;;;4.28;2.45;;;;;;;20.00;79.66;100668.97;4921061;29;20443;-86
2023/09/03 03:08:59;;;;;;;4.40;2.55;;;;;;;19.97;79.47;100669.31;4912866;29;20059;-86
2023/09/03 03:11:40;;;;;;;7.53;2.20;;;;;;;19.98;79.52;100679.09;4877543;29;20041;-86
2023/09/03 03:14:07;;;;;;;4.22;2.33;;;;;;;19.96;79.80;100683.81;4854667;29;20045;-86
2023/09/03 03:16:37;;;;;;;4.80;2.42;;;;;;;19.92;79.80;100672.56;4853654;29;20053;-86
2023/09/03 03:19:10;;;;;;;3.60;2.00;;;;;;;19.89;79.77;100682.81;4867815;29;20053;-86
2023/09/03 03:21:37;;;;;;;5.88;2.67;;;;;;;19.88;79.73;100679.31;4868303;29;20053;-86
2023/09/03 03:24:05;;;;;;;8.82;2.30;;;;;;;19.89;79.73;100677.44;4866799;29;20497;-86
2023/09/03 03:26:35;;;;;;;4.40;2.10;;;;;;;19.87;79.76;100677.63;4868239;29;20705;-85
2023/09/03 03:29:04;;;;;;;5.47;2.55;;;;;;;19.88;79.75;100675.78;4849305;29;20053;-85
2023/09/03 03:31:35;;;;;;;4.75;2.25;;;;;;;19.86;79.86;100669.72;4884273;29;20051;-86
2023/09/03 03:34:02;;;;;;;5.07;2.38;;;;;;;19.85;79.76;100673.44;4854292;29;20060;-86
2023/09/03 03:36:30;;;;;;;6.53;2.50;;;;;;;19.84;79.62;100666.34;4855277;29;20056;-86
2023/09/03 03:38:57;;;;;;;6.95;2.33;;;;;;;19.82;79.56;100661.16;4871055;29;20089;-86
2023/09/03 03:41:24;;;;;;;4.40;2.17;;;;;;;19.84;79.86;100672.56;4856358;29;20052;-86
2023/09/03 03:43:53;;;;;;;7.10;2.40;;;;;;;19.80;80.00;100671.25;4935112;28;20090;-86
2023/09/03 03:46:23;;;;;;;7.25;2.35;;;;;;;19.82;80.02;100682.72;4942388;28;20047;-86
2023/09/03 03:48:53;;;;;;;7.15;2.50;;;;;;;19.79;80.22;100666.88;4904157;28;20522;-85
2023/09/03 03:51:20;;;;;;;6.55;1.83;;;;;;;19.81;80.16;100677.47;4913943;28;20062;-86
2023/09/03 03:53:49;;;;;;;4.95;2.00;;;;;;;19.80;79.81;100665.03;4911856;28;20123;-86
2023/09/03 03:56:17;;;;;;;3.22;1.95;;;;;;;19.79;79.71;100672.25;4937962;28;20119;-85
2023/09/03 03:58:45;;;;;;;4.90;2.10;;;;;;;19.78;79.92;100675.16;4929185;28;20065;-86
2023/09/03 04:01:16;;;;;;;4.47;2.03;;;;;;;19.79;79.74;100666.03;4906599;28;20134;-87
2023/09/03 04:03:46;;;;;;;8.93;2.20;;;;;;;19.76;80.00;100675.31;4923116;28;20136;-86
2023/09/03 04:06:13;;;;;;;3.38;2.20;;;;;;;19.76;79.92;100674.47;4926116;28;20055;-86
2023/09/03 04:08:43;;;;;;;7.50;2.58;;;;;;;19.73;80.10;100678.34;4942630;28;20043;-86
2023/09/03 04:11:11;;;;;;;3.45;2.13;;;;;;;19.71;79.76;100688.47;4925060;28;20515;-86
2023/09/03 04:13:38;;;;;;;5.72;2.47;;;;;;;19.69;79.62;100690.50;4930568;28;20071;-86
2023/09/03 04:16:08;;;;;;;5.50;2.17;;;;;;;19.68;79.37;100681.56;4910900;28;20051;-86
2023/09/03 04:18:36;;;;;;;8.30;2.00;;;;;;;19.69;79.65;100682.41;4922362;28;20051;-87
2023/09/03 04:21:03;;;;;;;4.35;2.42;;;;;;;19.68;79.62;100676.19;4939168;28;20126;-87
2023/09/03 04:23:31;;;;;;;3.42;2.10;;;;;;;19.66;79.82;100678.16;4934372;28;20054;-85
2023/09/03 04:26:00;;;;;;;4.47;2.13;;;;;;;19.63;79.76;100683.91;4918243;28;20051;-86
2023/09/03 04:28:29;;;;;;;2.00;1.63;;;;;;;19.65;79.71;100698.06;4952959;28;20055;-86
2023/09/03 04:31:03;;;;;;;4.75;2.00;;;;;;;19.64;79.59;100704.47;4922667;28;20399;-85
2023/09/03 04:33:34;;;;;;;4.90;1.70;;;;;;;19.64;79.39;100707.16;4928150;28;20043;-86
2023/09/03 04:36:03;;;;;;;8.48;2.15;;;;;;;19.63;79.50;100708.16;4912293;28;20062;-86
2023/09/03 04:38:33;;;;;;;5.13;2.30;;;;;;;19.62;79.24;100711.88;4913058;28;20051;-86
2023/09/03 04:41:04;;;;;;;7.57;2.15;;;;;;;19.56;79.09;100712.56;4940001;28;20071;-86
2023/09/03 04:43:42;;;;;;;5.53;2.10;;;;;;;19.56;79.06;100719.81;4908211;28;20126;-85
2023/09/03 04:46:09;;;;;;;4.07;2.17;;;;;;;19.57;79.28;100727.72;4925344;28;20047;-86
2023/09/03 04:48:37;;;;;;;3.13;2.30;;;;;;;19.51;79.32;100740.03;4924965;28;20054;-86
2023/09/03 04:51:04;;;;;;;2.45;1.85;;;;;;;19.45;79.53;100743.41;4911758;28;20055;-86
2023/09/03 04:53:33;;;;;;;6.57;2.60;;;;;;;19.44;79.51;100751.69;4944747;28;20047;-86
2023/09/03 04:56:01;;;;;;;6.60;1.85;;;;;;;19.46;79.52;100755.88;4921441;28;20055;-86
2023/09/03 04:58:29;;;;;;;4.75;2.28;;;;;;;19.48;79.36;100753.00;4940702;28;20051;-86
2023/09/03 05:00:57;;;;;;;6.45;2.20;;;;;;;19.50;79.26;100753.66;4925829;28;20059;-86
2023/09/03 05:03:24;;;;;;;5.57;1.90;;;;;;;19.49;79.17;100746.63;4909679;28;20058;-86
2023/09/03 05:05:51;;;;;;;3.95;1.88;;;;;;;19.49;79.25;100749.31;4917806;29;20047;-85
2023/09/03 05:08:18;;;;;;;8.27;2.13;;;;;;;19.48;79.17;100748.44;4937035;28;20071;-85
2023/09/03 05:10:47;;;;;;;10.15;2.38;;;;;;;19.52;79.30;100759.72;4936259;28;20131;-86
2023/09/03 05:13:14;;;;;;;3.80;1.80;;;;;;;19.50;79.66;100757.19;4923875;28;20115;-86
2023/09/03 05:15:41;;;;;;;4.25;1.75;;;;;;;19.48;79.46;100758.38;4936492;28;20150;-86
2023/09/03 05:18:08;;;;;;;5.90;1.92;;;;;;;19.48;79.56;100758.38;4906640;28;20135;-85
2023/09/03 05:20:38;;;;;;;3.92;2.00;;;;;;;19.46;79.92;100749.63;4927089;29;20059;-86
2023/09/03 05:23:06;;;;;;;4.95;1.80;;;;;;;19.50;79.65;100745.59;4937872;28;20051;-86
2023/09/03 05:25:34;;;;;;;4.80;1.88;;;;;;;19.51;79.76;100744.56;4932397;28;20110;-86
2023/09/03 05:28:01;;;;;;;3.13;1.92;;;;;;;19.48;79.76;100744.91;4920771;28;20043;-86
2023/09/03 05:30:30;;;;;;;6.30;1.95;;;;;;;19.47;80.03;100746.78;4928378;28;20053;-85
2023/09/03 05:32:58;;;;;;;4.55;2.40;;;;;;;19.45;79.80;100758.72;4923839;28;20051;-86
2023/09/03 05:35:26;;;;;;;3.90;1.98;;;;;;;19.46;79.66;100746.94;4958421;28;20047;-85
2023/09/03 05:37:53;;;;;;;6.32;2.10;;;;;;;19.47;79.96;100745.94;4938215;28;20500;-87
2023/09/03 05:40:20;;;;;;;5.10;1.98;;;;;;;19.47;80.11;100745.94;4926832;28;20051;-86
2023/09/03 05:42:48;;;;;;;2.63;2.05;;;;;;;19.51;80.16;100768.81;4922511;29;20096;-86
2023/09/03 05:45:15;;;;;;;6.50;2.60;;;;;;;19.50;80.24;100770.66;4921399;28;20998;-85
2023/09/03 05:47:43;;;;;;;5.30;2.40;;;;;;;19.52;80.01;100773.19;4927025;28;20051;-86
2023/09/03 05:50:10;;;;;;;2.40;2.03;;;;;;;19.51;80.47;100775.06;4920966;28;20043;-86
2023/09/03 05:52:37;;;;;;;5.13;2.03;;;;;;;19.52;80.73;100775.91;4935097;28;20079;-86
2023/09/03 05:55:04;;;;;;;6.63;2.35;;;;;;;19.54;80.72;100773.88;4927449;28;20237;-86
2023/09/03 05:57:31;;;;;;;3.53;2.20;;;;;;;19.54;80.77;100776.56;4919774;28;20106;-86
2023/09/03 05:59:58;;;;;;;5.72;2.05;;;;;;;19.53;80.63;100773.00;4911686;28;20054;-85
2023/09/03 06:02:25;;;;;;;2.15;1.95;;;;;;;19.58;80.56;100777.91;4910003;28;20566;-86
2023/09/03 06:04:52;;;;;;;2.42;2.22;;;;;;;19.57;80.77;100787.00;4890039;28;20455;-86
2023/09/03 06:07:20;;;;;;;5.53;2.22;;;;;;;19.54;81.11;100776.56;4919521;28;20043;-86
2023/09/03 06:09:47;;;;;;;6.57;2.35;;;;;;;19.59;80.67;100781.41;4925580;28;20135;-86
2023/09/03 06:12:14;;;;;;;4.90;2.10;;;;;;;19.60;81.14;100786.66;4936416;28;20184;-86
2023/09/03 06:14:41;;;;;;;7.07;2.13;;;;;;;19.59;81.02;100781.41;4936346;28;20174;-85
2023/09/03 06:17:07;;;;;;;3.95;2.03;;;;;;;19.62;80.60;100781.94;4904060;28;20059;-86
2023/09/03 06:19:34;;;;;;;5.72;2.20;;;;;;;19.62;80.40;100786.50;4912636;28;20042;-86
2023/09/03 06:22:01;;;;;;;7.18;2.38;;;;;;;19.65;80.75;100795.06;4927774;28;20074;-85
2023/09/03 06:24:28;;;;;;;4.75;2.17;;;;;;;19.68;80.79;100791.22;4922556;28;20526;-86
2023/09/03 06:26:57;;;;;;;4.22;2.40;;;;;;;19.68;80.77;100796.59;4911165;28;20140;-85
2023/09/03 06:29:25;;;;;;;2.97;2.30;;;;;;;19.70;80.66;100803.50;4935514;28;20139;-85
2023/09/03 06:31:51;;;;;;;2.63;2.00;;;;;;;19.69;80.29;100801.84;4927278;28;20408;-85
2023/09/03 06:34:20;;;;;;;5.63;2.53;;;;;;;19.67;80.65;100806.56;4936927;28;20035;-85
2023/09/03 06:36:47;;;;;;;6.00;2.53;;;;;;;19.67;81.25;100814.63;4949933;28;20671;-86
2023/09/03 06:39:14;;;;;;;2.50;2.30;;;;;;;19.68;81.09;100815.47;4922235;28;20523;-86
2023/09/03 06:41:40;;;;;;;4.38;2.45;;;;;;;19.67;81.30;100819.19;4929679;28;20043;-85
2023/09/03 06:44:07;;;;;;;3.15;2.40;;;;;;;19.71;80.91;100829.44;4924232;28;20111;-86
2023/09/03 06:46:34;;;;;;;2.83;2.35;;;;;;;19.69;81.35;100827.91;4908560;28;20043;-85
2023/09/03 06:49:01;;;;;;;7.05;2.45;;;;;;;19.69;81.28;100833.31;4940977;28;20411;-86
2023/09/03 06:51:28;;;;;;;3.22;2.20;;;;;;;19.71;80.88;100829.44;4924966;28;20473;-86
2023/09/03 06:53:54;;;;;;;4.10;2.25;;;;;;;19.71;81.54;100825.91;4933782;28;20049;-86
2023/09/03 06:56:22;;;;;;;2.95;1.98;;;;;;;19.77;81.64;100837.84;4917452;28;20169;-85
2023/09/03 06:58:49;;;;;;;6.85;2.50;;;;;;;19.79;81.58;100841.22;4929262;28;22175;-83
2023/09/03 07:01:17;;;;;;;5.05;2.47;;;;;;;19.80;82.02;100842.91;4912118;28;20539;-81
2023/09/03 07:03:44;;;;;;;3.25;2.30;;;;;;;19.80;81.60;100841.06;4913646;28;20066;-81
2023/09/03 07:06:11;;;;;;;2.33;2.10;;;;;;;19.81;81.87;100840.03;4907422;28;20130;-83
2023/09/03 07:08:37;;;;;;;3.00;2.33;;;;;;;19.79;82.04;100841.22;4926814;28;20406;-84
2023/09/03 07:11:04;;;;;;;10.32;2.60;;;;;;;19.83;82.60;100846.09;4936254;28;20061;-84
2023/09/03 07:13:31;;;;;;;3.47;2.38;;;;;;;19.86;82.61;100853.84;4927424;29;20052;-81
2023/09/03 07:16:03;;;;;;;2.15;2.00;;;;;;;19.84;81.99;100855.00;4911296;28;20075;-81
2023/09/03 07:18:29;;;;;;;3.93;2.50;;;;;;;19.87;82.48;100860.06;4928149;28;20142;-81
2023/09/03 07:21:04;;;;;;;3.88;2.25;;;;;;;19.87;82.78;100860.06;4910049;28;20051;-82
2023/09/03 07:23:31;;;;;;;5.90;2.35;;;;;;;19.91;82.85;100850.63;4927847;28;20516;-81
2023/09/03 07:26:10;;;;;;;6.72;2.55;;;;;;;19.90;83.51;100848.97;4910357;28;20055;-81
2023/09/03 07:28:41;;;;;;;2.72;2.40;;;;;;;19.98;83.26;100854.31;4939552;28;20051;-82
2023/09/03 07:31:07;;;;;;;3.88;2.25;;;;;;;20.00;83.15;100852.31;4939315;28;20040;-82
2023/09/03 07:33:34;;;;;;;4.88;2.47;;;;;;;20.06;83.45;100864.25;4937284;28;20043;-81
2023/09/03 07:36:01;;;;;;;8.30;2.55;;;;;;;20.08;83.42;100865.75;4930169;28;20049;-82
2023/09/03 07:38:28;;;;;;;3.67;2.40;;;;;;;20.12;83.73;100868.94;4935256;28;20043;-89
2023/09/03 07:40:55;;;;;;;8.65;2.75;;;;;;;20.15;83.72;100874.84;4923586;28;20043;-89
2023/09/03 07:43:22;;;;;;;2.28;2.08;;;;;;;20.21;84.05;100867.06;4921217;28;20789;-89
2023/09/03 07:45:50;;;;;;;2.80;2.33;;;;;;;20.26;84.12;100867.41;4939019;28;20523;-89
2023/09/03 07:48:17;;;;;;;5.25;2.17;;;;;;;20.31;84.40;100867.72;4911722;28;20047;-82
2023/09/03 07:50:44;;;;;;;4.70;1.80;;;;;;;20.36;84.26;100871.56;4905455;29;20157;-82
2023/09/03 07:53:11;;;;;;;4.30;2.35;;;;;;;20.43;84.90;100874.41;4916722;28;20122;-83
2023/09/03 07:55:37;;;;;;;4.70;2.08;;;;;;;20.48;84.93;100880.13;4945250;28;20044;-82
2023/09/03 07:58:05;;;;;;;5.50;2.33;;;;;;;20.54;84.11;100875.88;4928905;28;20066;-81
2023/09/03 08:00:31;;;;;;;4.32;2.20;;;;;;;20.56;83.86;100880.13;4919192;28;20083;-82
2023/09/03 08:02:58;;;;;;;5.68;2.35;;;;;;;20.56;83.60;100869.31;4927876;28;20110;-81
2023/09/03 08:05:25;;;;;;;2.75;1.90;;;;;;;20.59;84.18;100878.94;4908338;28;20106;-82
2023/09/03 08:07:52;;;;;;;5.50;2.33;;;;;;;20.61;84.14;100871.50;4933817;28;20115;-82
2023/09/03 08:10:21;;;;;;;3.78;1.90;;;;;;;20.65;83.98;100894.41;4947682;28;20055;-82
2023/09/03 08:12:50;;;;;;;3.85;2.20;;;;;;;20.69;83.94;100893.03;4892204;29;20380;-81
2023/09/03 08:15:17;;;;;;;3.22;2.00;;;;;;;20.71;84.63;100895.56;4940905;28;20047;-81
2023/09/03 08:18:03;;;;;;;2.20;2.00;;;;;;;20.74;84.93;100895.22;4908306;29;20059;-81
2023/09/03 08:20:30;;;;;;;2.03;1.90;;;;;;;20.77;84.03;100897.56;4893735;28;20142;-82
2023/09/03 08:22:57;;;;;;;2.28;1.90;;;;;;;20.77;83.71;100895.69;4921100;28;20047;-81
2023/09/03 08:25:24;;;;;;;2.75;1.90;;;;;;;20.84;83.95;100898.53;4898495;28;20066;-81
2023/09/03 08:27:51;;;;;;;2.35;1.80;;;;;;;20.87;83.34;100902.75;4910903;28;20051;-81
2023/09/03 08:30:18;;;;;;;2.22;1.92;;;;;;;20.90;83.41;100897.00;4924026;28;20138;-83
2023/09/03 08:32:45;;;;;;;1.55;1.45;;;;;;;20.92;83.42;100901.19;4886450;28;20047;-81
2023/09/03 08:35:12;;;;;;;2.70;1.92;;;;;;;20.93;83.35;100902.88;4914143;28;20048;-82
2023/09/03 08:37:38;;;;;;;3.50;1.90;;;;;;;20.95;83.89;100902.69;4897512;28;20059;-83
2023/09/03 08:40:06;;;;;;;3.78;1.77;;;;;;;21.00;83.55;100911.09;4930182;28;20050;-81
2023/09/03 08:42:33;;;;;;;2.35;1.77;;;;;;;21.02;83.13;100909.06;4926300;28;20043;-81
2023/09/03 08:45:04;;;;;;;2.13;1.58;;;;;;;21.03;83.11;100905.34;4921022;28;20122;-82
2023/09/03 08:47:31;;;;;;;1.92;1.75;;;;;;;21.07;83.59;100903.16;4905970;28;20071;-81
2023/09/03 08:49:59;;;;;;;2.30;1.60;;;;;;;21.11;82.96;100896.34;4922380;28;20039;-81
2023/09/03 08:52:26;;;;;;;2.08;1.85;;;;;;;21.11;83.16;100899.88;4928148;28;20070;-81
2023/09/03 08:54:53;;;;;;;2.28;1.60;;;;;;;21.14;83.38;100902.25;4916162;28;20057;-82
2023/09/03 08:57:26;;;;;;;5.78;2.10;;;;;;;21.14;83.14;100901.38;4907732;28;20047;-81
2023/09/03 08:59:52;;;;;;;3.53;1.83;;;;;;;21.17;82.98;100901.06;4883171;28;20435;-82
2023/09/03 09:02:20;;;;;;;4.82;2.10;;;;;;;21.19;82.78;100899.00;4927296;28;20368;-82
2023/09/03 09:04:47;;;;;;;1.40;1.30;;;;;;;21.22;82.75;100904.91;4925898;28;20046;-81
2023/09/03 09:07:14;;;;;;;2.05;1.55;;;;;;;21.27;82.67;100904.38;4906270;28;20464;-83
2023/09/03 09:09:42;;;;;;;3.60;1.73;;;;;;;21.31;82.50;100907.53;4912759;28;20043;-93
2023/09/03 09:12:14;;;;;;;3.65;1.80;;;;;;;21.31;82.09;100908.38;4924970;28;21164;-90
2023/09/03 09:15:00;;;;;;;1.70;1.60;;;;;;;21.30;83.47;100919.38;4913561;28;20086;-91
2023/09/03 09:17:30;;;;;;;3.22;1.80;;;;;;;21.40;82.41;100920.84;4921236;28;20450;-91
2023/09/03 09:19:59;;;;;;;2.00;1.80;;;;;;;21.45;82.00;100920.31;4895946;28;20051;-89
2023/09/03 09:22:25;;;;;;;3.40;1.63;;;;;;;;;;4892109;28;20138;-89
2023/09/03 09:24:53;;;;;;;1.60;1.50;;;;;;;21.50;82.34;100917.03;4924122;28;20373;-89
2023/09/03 09:27:20;;;;;;;3.15;1.67;;;;;;;21.52;82.63;100913.13;4910310;28;20085;-87
2023/09/03 09:29:47;;;;;;;1.80;1.67;;;;;;;21.56;82.16;100906.34;4925900;28;20051;-87
2023/09/03 09:32:22;;;;;;;4.72;1.58;;;;;;;21.59;82.80;100897.88;4925369;28;20055;-87
2023/09/03 09:34:50;;;;;;;1.60;1.48;;;;;;;21.66;83.21;100898.84;4923162;28;20114;-87
2023/09/03 09:37:16;;;;;;;1.45;1.35;;;;;;;21.69;82.71;100900.34;4924242;28;20523;-87
2023/09/03 09:39:47;;;;;;;2.28;1.50;;;;;;;21.75;82.66;100893.34;4920871;28;20095;-88
2023/09/03 09:42:18;;;;;;;2.47;1.58;;;;;;;21.79;82.67;100891.97;4903577;28;20054;-88
2023/09/03 09:44:48;;;;;;;1.60;1.30;;;;;;;21.82;81.42;100895.13;4908321;28;20074;-87
2023/09/03 09:47:18;;;;;;;1.60;1.50;;;;;;;21.87;81.53;100895.44;4933420;28;20098;-87
2023/09/03 09:49:45;;;;;;;4.10;1.73;;;;;;;21.90;81.78;100896.91;4928756;28;20117;-88
2023/09/03 09:52:13;;;;;;;1.88;1.60;;;;;;;21.89;81.59;100896.09;4919651;28;20499;-88
2023/09/03 09:54:41;;;;;;;1.40;1.30;;;;;;;21.92;81.16;100903.00;4924237;28;20107;-88
2023/09/03 09:57:27;;;;;;;3.13;1.88;;;;;;;21.87;80.12;100894.59;4892655;28;20066;-88
2023/09/03 09:59:55;;;;;;;2.10;1.60;;;;;;;21.98;81.76;100896.88;4907037;28;20828;-88
2023/09/03 10:02:22;;;;;;;1.73;1.63;;;;;;;22.04;81.35;100900.69;4922344;28;20130;-88
2023/09/03 10:04:51;;;;;;;1.63;1.40;;;;;;;22.07;80.98;100903.84;4920507;28;20499;-88
2023/09/03 10:07:18;;;;;;;3.25;1.58;;;;;;;22.16;81.24;100909.16;4936848;28;20086;-88
2023/09/03 10:09:45;;;;;;;2.38;1.55;;;;;;;22.16;81.48;100906.47;4916234;29;20051;-88
2023/09/03 10:12:13;;;;;;;1.92;1.27;;;;;;;22.19;80.18;100906.97;4890849;28;20130;-89
2023/09/03 10:14:40;;;;;;;1.60;1.50;;;;;;;22.20;80.55;100907.81;4913689;28;20051;-86
2023/09/03 10:17:08;;;;;;;1.55;1.40;;;;;;;22.25;79.95;100906.22;4919801;28;20411;-85
2023/09/03 10:19:54;;;;;;;3.03;1.58;;;;;;;22.24;79.53;100903.72;4930206;28;20152;-85
2023/09/03 10:22:23;;;;;;;1.50;1.40;;;;;;;22.30;80.15;100902.97;4928135;28;20049;-85
2023/09/03 10:24:56;;;;;;;2.08;1.70;;;;;;;22.31;79.50;100900.09;4892033;28;20177;-86
2023/09/03 10:27:26;;;;;;;1.77;1.50;;;;;;;22.36;79.23;100896.78;4920192;28;20785;-89
2023/09/03 10:29:55;;;;;;;3.20;1.50;;;;;;;22.40;78.87;100894.56;4910156;28;20056;-90
2023/09/03 10:32:22;;;;;;;3.45;1.33;;;;;;;22.41;78.90;100880.00;4910056;28;20051;-82
2023/09/03 10:34:49;;;;;;;1.60;1.50;;;;;;;22.42;78.23;100887.13;4912158;28;20059;-85
2023/09/03 10:37:16;;;;;;;1.70;1.55;;;;;;;22.41;77.62;100880.84;4912396;28;20118;-81
2023/09/03 10:39:45;;;;;;;1.80;1.70;;;;;;;22.45;76.50;100887.56;4909178;28;20043;-82
2023/09/03 10:42:15;;;;;;;1.50;1.35;;;;;;;22.48;76.09;100889.06;4919525;28;20547;-83
2023/09/03 10:44:43;;;;;;;1.73;1.33;;;;;;;22.50;76.00;100895.97;4924655;28;20051;-83
2023/09/03 10:47:13;;;;;;;2.17;1.60;;;;;;;22.53;75.86;100894.75;4922441;28;20091;-81
2023/09/03 10:49:41;;;;;;;1.95;1.42;;;;;;;22.54;75.98;100894.56;4924337;28;20138;-82
2023/09/03 10:52:28;;;;;;;1.63;1.48;;;;;;;22.49;74.92;100897.00;4889305;28;20059;-81
2023/09/03 10:55:14;;;;;;;1.35;1.25;;;;;;;22.51;75.37;100889.50;4935239;28;20039;-82
2023/09/03 10:57:43;;;;;;;1.38;1.27;;;;;;;22.58;74.96;100891.47;4933676;28;20051;-81
2023/09/03 11:00:11;;;;;;;1.23;1.13;;;;;;;22.58;74.83;100896.88;4930277;28;20051;-82
2023/09/03 11:03:18;;;;;;;1.77;1.40;;;;;;;22.51;73.28;100899.50;4901298;29;20103;-82
2023/09/03 11:06:18;;;;;;;2.92;1.52;;;;;;;22.52;74.31;100899.31;4909739;28;20051;-81
2023/09/03 11:09:08;;;;;;;4.03;1.50;;;;;;;22.61;73.85;100897.34;4899916;28;20130;-88
2023/09/03 11:12:29;;;;;;;4.18;1.70;;;;;;;22.64;72.83;100905.06;4932219;28;20646;-88
2023/09/03 11:14:56;;;;;;;2.47;1.50;;;;;;;22.65;73.02;100898.66;4937880;28;20067;-89
2023/09/03 11:17:23;;;;;;;6.72;1.98;;;;;;;22.69;73.71;100901.81;4951513;28;20043;-89
2023/09/03 11:19:50;;;;;;;1.38;1.27;;;;;;;22.73;73.38;100898.53;4905628;28;20495;-88
2023/09/03 11:22:19;;;;;;;2.47;1.90;;;;;;;22.78;72.94;100894.44;4920651;28;20060;-88
2023/09/03 11:24:47;;;;;;;1.90;1.60;;;;;;;22.80;71.90;100903.22;4920361;28;20127;-87
2023/09/03 11:27:14;;;;;;;2.83;2.10;;;;;;;22.79;71.03;100896.09;4925742;28;20048;-88
2023/09/03 11:29:40;;;;;;;2.35;1.50;;;;;;;22.78;71.25;100899.84;4940339;28;20063;-88
2023/09/03 11:32:07;;;;;;;5.35;2.30;;;;;;;22.83;71.11;100906.38;4924271;28;20054;-87
2023/09/03 11:34:34;;;;;;;2.75;1.77;;;;;;;22.84;71.54;100893.66;4924337;28;20111;-88
2023/09/03 11:37:02;;;;;;;1.95;1.60;;;;;;;22.85;71.95;100896.19;4942467;28;20059;-86